Time;durP1;ratioP1;P1;durP2;ratioP2;P2;SDS_P1;SDS_P2;PMS_P1;PMS_P2;Temp;Humidity;BMP_temperature;BMP_pressure;BME280_temperature;BME280_humidity;BME280_pressure;Samples;Min_cycle;Max_cycle;Signal;HPM_P1;HPM_P2
2021/05/25 00:00:27;;;;;;;4.50;3.87;;;18.10;99.90;;;;;;5113481;28;20592;-68
2021/05/25 00:02:54;;;;;;;4.53;4.10;;;17.90;99.90;;;;;;5098724;28;20202;-68
2021/05/25 00:05:26;;;;;;;5.93;4.17;;;17.70;99.90;;;;;;5117045;28;20913;-69
2021/05/25 00:07:52;;;;;;;3.97;3.63;;;17.90;99.90;;;;;;5098878;28;20493;-67
2021/05/25 00:10:18;;;;;;;4.03;3.60;;;17.70;99.90;;;;;;5116982;28;20461;-70
2021/05/25 00:12:44;;;;;;;4.60;3.67;;;17.80;99.90;;;;;;5116918;28;20432;-67
2021/05/25 00:15:14;;;;;;;5.60;3.80;;;17.70;99.90;;;;;;5116964;28;20802;-69
2021/05/25 00:17:40;;;;;;;5.70;4.63;;;17.60;99.90;;;;;;5117195;28;20824;-67
2021/05/25 00:20:08;;;;;;;6.97;5.40;;;17.50;99.90;;;;;;5116921;28;20767;-68
2021/05/25 00:22:34;;;;;;;5.40;4.20;;;17.50;99.90;;;;;;5116418;28;20803;-69
2021/05/25 00:25:00;;;;;;;4.90;3.73;;;17.70;99.90;;;;;;5116286;28;20526;-68
2021/05/25 00:27:25;;;;;;;4.63;4.20;;;17.80;99.90;;;;;;5116965;28;20527;-67
2021/05/25 00:29:51;;;;;;;3.97;3.50;;;17.80;99.90;;;;;;5116803;28;20172;-67
2021/05/25 00:32:17;;;;;;;5.60;4.07;;;17.80;99.90;;;;;;5116722;28;20435;-69
2021/05/25 00:34:43;;;;;;;4.33;3.70;;;17.80;99.90;;;;;;5098257;28;20255;-68
2021/05/25 00:37:09;;;;;;;3.53;3.23;;;17.90;99.90;;;;;;5116525;28;20233;-67
2021/05/25 00:39:35;;;;;;;6.20;4.80;;;18.00;99.90;;;;;;5116444;28;20259;-67
2021/05/25 00:42:01;;;;;;;5.30;4.07;;;18.00;99.90;;;;;;5116591;28;20520;-69
2021/05/25 00:44:27;;;;;;;4.50;4.10;;;18.00;99.90;;;;;;5116418;28;20178;-69
2021/05/25 00:46:52;;;;;;;4.30;3.90;;;17.90;99.90;;;;;;5116439;28;20678;-67
2021/05/25 00:49:18;;;;;;;3.80;3.50;;;18.00;99.90;;;;;;5116196;28;20176;-68
2021/05/25 00:51:44;;;;;;;4.43;3.83;;;18.00;99.90;;;;;;5116318;28;20461;-69
2021/05/25 00:54:10;;;;;;;4.10;3.70;;;18.10;99.90;;;;;;5116120;28;20194;-70
2021/05/25 00:56:36;;;;;;;5.23;4.73;;;18.10;99.90;;;;;;5115956;28;20812;-67
2021/05/25 00:59:02;;;;;;;4.43;3.53;;;18.00;99.90;;;;;;5116051;28;20209;-67
2021/05/25 01:01:28;;;;;;;4.43;4.13;;;18.00;99.90;;;;;;5116109;28;20664;-68
2021/05/25 01:03:55;;;;;;;3.97;3.67;;;18.00;99.90;;;;;;5116064;28;20440;-68
2021/05/25 01:06:20;;;;;;;7.57;4.40;;;18.00;99.90;;;;;;5115980;28;20507;-68
2021/05/25 01:08:46;;;;;;;9.30;3.87;;;18.00;99.90;;;;;;5116028;28;20484;-68
2021/05/25 01:11:14;;;;;;;6.00;4.60;;;18.00;99.90;;;;;;5115636;28;20187;-68
2021/05/25 01:13:44;;;;;;;4.60;4.10;;;18.00;99.90;;;;;;5115843;28;20974;-69
2021/05/25 01:16:11;;;;;;;6.17;4.13;;;17.90;99.90;;;;;;5097384;28;20515;-69
2021/05/25 01:18:36;;;;;;;4.50;3.77;;;17.90;99.90;;;;;;5115618;28;20456;-68
2021/05/25 01:21:05;;;;;;;6.60;5.07;;;17.90;99.90;;;;;;5115756;28;20446;-69
2021/05/25 01:23:32;;;;;;;4.40;3.63;;;17.90;99.90;;;;;;5097240;28;20237;-67
2021/05/25 01:25:57;;;;;;;5.03;4.30;;;17.90;99.90;;;;;;5096639;28;20530;-68
2021/05/25 01:28:24;;;;;;;4.63;4.23;;;17.80;99.90;;;;;;5115007;28;20463;-70
2021/05/25 01:30:52;;;;;;;4.40;3.93;;;17.80;99.90;;;;;;5115471;28;20169;-69
2021/05/25 01:33:19;;;;;;;4.67;3.33;;;17.80;99.90;;;;;;5115194;28;20420;-68
2021/05/25 01:35:46;;;;;;;4.90;4.23;;;17.70;99.90;;;;;;5115267;28;20445;-67
2021/05/25 01:38:14;;;;;;;4.70;4.07;;;17.70;99.90;;;;;;5115004;28;20559;-69
2021/05/25 01:40:41;;;;;;;4.07;3.67;;;17.70;99.90;;;;;;5115218;28;20440;-70
2021/05/25 01:43:07;;;;;;;4.77;4.40;;;17.60;99.90;;;;;;5115000;28;20436;-69
2021/05/25 01:45:34;;;;;;;5.60;4.23;;;17.50;99.90;;;;;;5115129;28;20458;-68
2021/05/25 01:48:02;;;;;;;6.20;4.10;;;17.50;99.90;;;;;;5096926;28;20546;-68
2021/05/25 01:50:29;;;;;;;8.37;4.63;;;17.40;99.90;;;;;;5114753;28;20431;-67
2021/05/25 01:53:01;;;;;;;5.73;3.80;;;17.40;99.90;;;;;;5096529;28;20459;-67
2021/05/25 01:55:37;;;;;;;7.90;3.93;;;17.20;99.90;;;;;;5115280;28;20397;-68
2021/05/25 01:58:05;;;;;;;5.17;4.43;;;17.20;99.90;;;;;;5114755;28;20475;-67
2021/05/25 02:00:31;;;;;;;5.57;4.37;;;17.10;99.90;;;;;;5114714;28;20399;-68
2021/05/25 02:02:57;;;;;;;5.40;4.53;;;17.00;99.90;;;;;;5115222;28;20530;-70
2021/05/25 02:05:22;;;;;;;5.13;4.63;;;16.90;99.90;;;;;;5096507;28;20926;-67
2021/05/25 02:07:50;;;;;;;9.40;4.27;;;16.90;99.90;;;;;;5114960;28;20428;-68
2021/05/25 02:10:25;;;;;;;5.30;4.80;;;16.80;99.90;;;;;;5114698;28;20259;-67
2021/05/25 02:12:53;;;;;;;6.57;4.47;;;16.70;99.90;;;;;;5096467;28;20572;-67
2021/05/25 02:15:19;;;;;;;5.93;4.57;;;16.70;99.90;;;;;;5114550;28;20480;-70
2021/05/25 02:17:45;;;;;;;5.80;4.20;;;16.60;99.90;;;;;;5096418;28;20560;-69
2021/05/25 02:20:11;;;;;;;4.77;4.37;;;16.50;99.90;;;;;;5114526;28;20180;-69
2021/05/25 02:22:37;;;;;;;6.17;4.63;;;16.50;99.90;;;;;;5114794;28;20431;-69
2021/05/25 02:25:04;;;;;;;5.50;4.60;;;16.40;99.90;;;;;;5095585;28;20796;-69
2021/05/25 02:27:30;;;;;;;5.17;4.77;;;16.40;99.90;;;;;;5114727;28;20233;-67
2021/05/25 02:29:55;;;;;;;5.63;4.60;;;16.40;99.90;;;;;;5114249;28;20471;-68
2021/05/25 02:32:21;;;;;;;6.07;5.30;;;16.30;99.90;;;;;;5114710;28;20239;-69
2021/05/25 02:34:47;;;;;;;5.07;4.57;;;16.20;99.90;;;;;;5114234;28;20656;-68
2021/05/25 02:37:13;;;;;;;7.73;4.53;;;16.10;99.90;;;;;;5114366;28;20973;-67
2021/05/25 02:39:38;;;;;;;6.40;4.70;;;16.00;99.90;;;;;;5114214;28;20633;-69
2021/05/25 02:42:04;;;;;;;8.63;5.50;;;16.00;99.90;;;;;;5114479;28;20265;-68
2021/05/25 02:44:30;;;;;;;6.50;4.90;;;15.90;99.90;;;;;;5114200;28;20209;-67
2021/05/25 02:46:56;;;;;;;4.90;4.40;;;15.80;99.90;;;;;;5114232;28;20428;-68
2021/05/25 02:49:21;;;;;;;4.97;4.53;;;15.70;99.90;;;;;;5114266;28;20180;-70
2021/05/25 02:51:47;;;;;;;7.60;5.07;;;15.60;99.90;;;;;;5113970;28;20668;-68
2021/05/25 02:54:12;;;;;;;6.53;5.90;;;15.60;99.90;;;;;;5095793;28;20543;-70
2021/05/25 02:56:38;;;;;;;8.20;5.03;;;15.50;99.90;;;;;;5095794;28;20200;-68
2021/05/25 02:59:04;;;;;;;6.10;4.80;;;15.50;99.90;;;;;;5113948;28;20252;-68
2021/05/25 03:01:29;;;;;;;6.43;5.13;;;15.40;99.90;;;;;;5113977;28;20545;-67
2021/05/25 03:03:55;;;;;;;7.00;6.30;;;15.40;99.90;;;;;;5114172;28;20183;-68
2021/05/25 03:06:21;;;;;;;7.57;6.60;;;15.30;99.90;;;;;;5114023;28;20187;-67
2021/05/25 03:08:46;;;;;;;7.60;5.60;;;15.30;99.90;;;;;;5113959;28;20174;-69
2021/05/25 03:11:12;;;;;;;8.27;5.90;;;15.30;99.90;;;;;;5113919;28;20180;-67
2021/05/25 03:13:37;;;;;;;5.80;5.20;;;15.30;99.90;;;;;;5114032;28;20168;-68
2021/05/25 03:16:03;;;;;;;7.63;5.67;;;15.40;99.90;;;;;;5113976;28;20237;-68
2021/05/25 03:18:29;;;;;;;6.17;5.67;;;15.40;99.90;;;;;;5113867;28;20211;-68
2021/05/25 03:20:55;;;;;;;6.23;5.60;;;15.40;99.90;;;;;;5113897;28;20418;-69
2021/05/25 03:23:20;;;;;;;8.73;5.67;;;15.50;99.90;;;;;;5113790;28;20229;-67
2021/05/25 03:25:48;;;;;;;7.90;5.60;;;15.50;99.90;;;;;;5113912;28;20640;-69
2021/05/25 03:28:14;;;;;;;5.90;5.10;;;15.50;99.90;;;;;;5095516;28;20697;-67
2021/05/25 03:30:53;;;;;;;7.07;5.80;;;15.60;99.90;;;;;;5113102;28;20534;-67
2021/05/25 03:33:18;;;;;;;7.63;5.70;;;15.50;99.90;;;;;;5113643;28;20292;-67
2021/05/25 03:35:44;;;;;;;6.80;6.10;;;15.50;99.90;;;;;;5113941;28;20392;-67
2021/05/25 03:38:10;;;;;;;7.30;6.33;;;15.60;99.90;;;;;;5117486;28;20236;-67
2021/05/25 03:40:36;;;;;;;7.30;6.00;;;15.60;99.90;;;;;;5117601;28;20168;-67
2021/05/25 03:43:01;;;;;;;10.60;6.07;;;15.60;99.90;;;;;;5099362;28;20243;-67
2021/05/25 03:45:27;;;;;;;6.90;6.20;;;15.50;99.90;;;;;;5117516;28;20445;-68
2021/05/25 03:47:54;;;;;;;11.20;6.30;;;15.60;99.90;;;;;;5118050;28;20584;-69
2021/05/25 03:50:21;;;;;;;6.27;5.63;;;15.60;99.90;;;;;;5117388;28;20172;-67
2021/05/25 03:52:49;;;;;;;9.47;6.37;;;15.70;99.90;;;;;;5117787;28;20483;-69
2021/05/25 04:00:53;;;;;;;6.00;5.40;;;15.80;99.90;;;;;;5088117;28;20414;-69
2021/05/25 04:03:18;;;;;;;7.97;6.37;;;15.80;99.90;;;;;;5117116;28;20817;-70
2021/05/25 04:05:44;;;;;;;11.33;7.07;;;15.90;99.90;;;;;;5098907;28;20491;-70
2021/05/25 04:08:10;;;;;;;8.50;6.80;;;15.80;99.90;;;;;;5116975;28;20183;-69
2021/05/25 04:10:36;;;;;;;7.17;6.43;;;15.60;99.90;;;;;;5098729;28;20172;-68
2021/05/25 04:13:02;;;;;;;7.07;6.43;;;15.80;99.90;;;;;;5117317;28;20204;-67
2021/05/25 04:15:28;;;;;;;6.27;5.67;;;16.00;99.90;;;;;;5117027;28;20428;-70
2021/05/25 04:17:54;;;;;;;7.47;6.57;;;16.10;99.90;;;;;;5117176;28;21002;-67
2021/05/25 04:20:21;;;;;;;12.10;5.80;;;16.20;99.90;;;;;;5116878;28;20164;-70
2021/05/25 04:22:47;;;;;;;7.97;6.60;;;16.30;99.90;;;;;;5098206;28;20987;-68
2021/05/25 04:25:14;;;;;;;7.73;6.93;;;16.20;99.90;;;;;;5116143;28;20444;-68
2021/05/25 04:27:39;;;;;;;7.40;6.70;;;16.40;99.90;;;;;;5117135;28;20459;-68
2021/05/25 04:30:07;;;;;;;6.97;6.33;;;16.50;99.90;;;;;;5098135;28;20910;-68
2021/05/25 04:32:39;;;;;;;7.80;5.97;;;16.60;99.90;;;;;;5116070;28;20600;-70
2021/05/25 04:35:06;;;;;;;7.97;6.43;;;16.60;99.90;;;;;;5116590;28;20412;-68
2021/05/25 04:37:32;;;;;;;8.80;6.77;;;16.60;99.90;;;;;;5116507;28;20460;-67
2021/05/25 04:39:58;;;;;;;8.83;6.40;;;16.70;99.90;;;;;;5116423;28;20537;-67
2021/05/25 04:42:24;;;;;;;7.73;6.10;;;16.80;99.90;;;;;;5116614;28;20432;-67
2021/05/25 04:44:49;;;;;;;7.67;6.07;;;16.90;99.90;;;;;;5120195;27;20183;-70
2021/05/25 04:47:15;;;;;;;7.70;6.97;;;17.00;99.90;;;;;;5136018;27;20443;-69
2021/05/25 04:49:41;;;;;;;7.93;7.07;;;17.00;99.90;;;;;;5135170;27;20607;-67
2021/05/25 04:52:07;;;;;;;6.93;6.20;;;17.10;99.90;;;;;;5136366;27;20199;-70
2021/05/25 04:54:34;;;;;;;9.30;7.13;;;17.10;99.90;;;;;;5136357;27;20428;-70
2021/05/25 04:56:59;;;;;;;8.00;6.03;;;17.20;99.90;;;;;;5135907;27;20459;-68
2021/05/25 04:59:25;;;;;;;7.90;7.10;;;17.30;99.90;;;;;;5134482;27;20459;-70
2021/05/25 05:01:51;;;;;;;10.77;6.50;;;17.50;99.90;;;;;;5136265;27;20191;-69
2021/05/25 05:04:17;;;;;;;6.93;6.00;;;17.60;99.90;;;;;;5118111;27;20551;-68
2021/05/25 05:06:42;;;;;;;7.53;6.63;;;17.60;99.90;;;;;;5117271;27;20214;-69
2021/05/25 05:09:08;;;;;;;8.43;6.10;;;17.70;99.90;;;;;;5136364;27;20395;-69
2021/05/25 05:11:34;;;;;;;7.07;6.37;;;18.00;99.90;;;;;;5135517;27;20306;-67
2021/05/25 05:13:59;;;;;;;11.77;8.60;;;18.00;99.90;;;;;;5135078;27;20712;-69
2021/05/25 05:16:25;;;;;;;7.97;7.20;;;18.10;99.90;;;;;;5116594;27;20183;-67
2021/05/25 05:18:51;;;;;;;9.10;6.47;;;18.10;99.90;;;;;;5135658;27;20279;-69
2021/05/25 05:21:17;;;;;;;7.00;6.30;;;18.10;99.90;;;;;;5116767;27;20187;-68
2021/05/25 05:23:43;;;;;;;7.33;6.47;;;18.30;99.90;;;;;;5135398;27;20175;-70
2021/05/25 05:26:10;;;;;;;6.67;6.07;;;18.30;99.90;;;;;;5135941;27;20431;-70
2021/05/25 05:28:37;;;;;;;7.47;6.77;;;18.40;99.90;;;;;;5133866;27;20571;-67
2021/05/25 05:31:02;;;;;;;6.77;6.13;;;18.60;99.90;;;;;;5116448;27;20432;-69
2021/05/25 05:33:28;;;;;;;9.57;6.20;;;18.90;99.90;;;;;;5134331;27;20517;-67
2021/05/25 05:35:54;;;;;;;7.60;6.57;;;18.90;99.90;;;;;;5134400;27;20484;-67
2021/05/25 05:38:22;;;;;;;9.03;6.70;;;18.90;99.90;;;;;;5134476;27;20211;-67
2021/05/25 05:40:48;;;;;;;8.63;6.60;;;18.90;99.90;;;;;;5134847;27;20554;-69
2021/05/25 05:43:14;;;;;;;10.17;6.43;;;18.90;99.90;;;;;;5134599;27;20519;-69
2021/05/25 05:45:39;;;;;;;9.30;6.47;;;19.10;99.90;;;;;;5134640;27;20548;-68
2021/05/25 05:48:06;;;;;;;7.13;5.70;;;19.00;99.90;;;;;;5134866;27;20258;-70
2021/05/25 05:50:32;;;;;;;7.20;6.50;;;19.10;99.90;;;;;;5134540;27;20587;-68
2021/05/25 05:52:58;;;;;;;9.73;7.10;;;19.20;99.90;;;;;;5133209;27;20506;-68
2021/05/25 05:55:24;;;;;;;7.20;6.13;;;19.30;99.90;;;;;;5133595;27;20411;-68
2021/05/25 05:57:52;;;;;;;7.03;6.33;;;19.40;99.90;;;;;;5134234;27;20213;-68
2021/05/25 06:00:18;;;;;;;11.03;7.17;;;19.50;99.90;;;;;;5134035;27;20415;-69
2021/05/25 06:02:44;;;;;;;8.27;7.37;;;19.60;99.90;;;;;;5133186;27;20465;-68
2021/05/25 06:05:11;;;;;;;7.97;7.17;;;19.60;99.90;;;;;;5113824;27;20475;-68
2021/05/25 06:07:36;;;;;;;7.50;6.70;;;19.60;99.90;;;;;;5133309;27;20460;-70
2021/05/25 06:10:04;;;;;;;9.80;7.97;;;20.00;99.90;;;;;;5115326;27;20419;-69
2021/05/25 06:12:30;;;;;;;8.13;7.33;;;20.30;99.90;;;;;;5134888;27;20542;-70
2021/05/25 06:14:55;;;;;;;8.10;7.30;;;20.20;99.90;;;;;;5114795;27;20433;-68
2021/05/25 06:17:21;;;;;;;11.00;7.53;;;20.00;99.90;;;;;;5115867;27;20924;-67
2021/05/25 06:19:47;;;;;;;7.57;6.87;;;20.20;99.90;;;;;;5112882;27;20611;-69
2021/05/25 06:22:13;;;;;;;7.43;6.73;;;20.30;99.90;;;;;;5133154;27;20210;-68
2021/05/25 06:24:39;;;;;;;7.57;6.80;;;20.70;99.90;;;;;;5113805;27;20429;-69
2021/05/25 07:04:39;;;;;;;10.23;7.50;;;21.10;99.90;;;;;;5380752;22;21216;-89
2021/05/25 07:07:11;;;;;;;7.07;6.33;;;21.50;99.90;;;;;;5025038;28;20468;-89
2021/05/25 07:09:37;;;;;;;7.80;7.10;;;21.40;99.90;;;;;;5034583;28;20430;-88
2021/05/25 07:12:03;;;;;;;7.67;6.80;;;21.30;99.90;;;;;;5032477;28;20489;-89
2021/05/25 07:14:31;;;;;;;8.90;6.53;;;21.30;99.90;;;;;;5033298;28;20194;-88
2021/05/25 07:17:00;;;;;;;6.80;6.20;;;21.80;99.90;;;;;;5032620;28;20412;-88
2021/05/25 07:19:29;;;;;;;6.70;6.10;;;22.00;99.90;;;;;;5031158;28;20532;-89
2021/05/25 07:21:54;;;;;;;7.90;7.07;;;22.40;99.90;;;;;;5032569;28;20412;-88
2021/05/25 07:24:20;;;;;;;7.40;6.00;;;22.70;99.90;;;;;;5031761;28;20496;-90
2021/05/25 07:26:46;;;;;;;7.67;6.70;;;22.90;99.90;;;;;;5031095;28;20198;-88
2021/05/25 07:29:11;;;;;;;8.10;6.67;;;22.80;99.90;;;;;;5032744;28;20207;-88
2021/05/25 07:31:37;;;;;;;6.57;5.87;;;22.70;99.90;;;;;;5033879;28;20187;-88
2021/05/25 07:34:03;;;;;;;7.00;5.87;;;22.10;99.90;;;;;;5028165;28;20235;-92
2021/05/25 07:36:29;;;;;;;6.43;5.93;;;21.70;99.90;;;;;;5029323;28;20650;-88
2021/05/25 07:38:55;;;;;;;6.53;5.93;;;21.70;99.90;;;;;;5033617;28;20482;-92
2021/05/25 07:41:22;;;;;;;6.80;6.20;;;22.10;99.90;;;;;;5031801;28;20991;-89
2021/05/25 07:43:48;;;;;;;5.93;5.40;;;22.20;99.90;;;;;;5029752;28;20455;-89
2021/05/25 07:46:14;;;;;;;6.63;5.70;;;22.80;99.90;;;;;;5031778;28;20415;-88
2021/05/25 07:48:40;;;;;;;6.70;5.97;;;22.40;99.90;;;;;;5034107;28;20459;-88
2021/05/25 07:51:06;;;;;;;6.60;6.00;;;22.30;99.90;;;;;;5037191;28;20418;-91
2021/05/25 07:53:33;;;;;;;6.17;5.67;;;22.00;99.90;;;;;;5026224;28;20436;-91
2021/05/25 07:55:58;;;;;;;5.53;5.07;;;22.10;99.90;;;;;;5031584;28;20933;-92
2021/05/25 07:58:24;;;;;;;7.47;6.20;;;23.00;99.90;;;;;;5027305;28;20497;-88
2021/05/25 08:00:51;;;;;;;6.80;6.10;;;23.40;99.90;;;;;;5030409;28;20198;-88
2021/05/25 08:03:18;;;;;;;6.63;6.03;;;23.20;99.90;;;;;;5030338;28;20476;-91
2021/05/25 08:05:44;;;;;;;10.20;6.13;;;22.50;99.90;;;;;;5028101;28;20475;-91
2021/05/25 08:08:10;;;;;;;5.70;5.13;;;22.60;99.90;;;;;;5026357;28;20816;-89
2021/05/25 08:10:36;;;;;;;5.67;5.13;;;22.90;99.90;;;;;;5027310;28;20436;-87
2021/05/25 08:13:05;;;;;;;6.90;5.40;;;23.50;99.90;;;;;;5022559;28;20212;-91
2021/05/25 08:15:33;;;;;;;6.77;6.17;;;23.90;99.90;;;;;;5025534;28;20495;-88
2021/05/25 08:20:44;;;;;;;6.53;6.03;;;24.30;99.90;;;;;;5029501;28;20423;-91
2021/05/25 08:23:12;;;;;;;6.23;5.63;;;23.80;99.90;;;;;;5026099;28;20451;-91
2021/05/25 08:25:40;;;;;;;7.37;5.17;;;22.90;99.90;;;;;;5022964;28;20416;-93
2021/05/25 08:28:06;;;;;;;5.77;5.20;;;22.80;99.90;;;;;;5030122;28;20476;-92
2021/05/25 08:30:36;;;;;;;7.20;5.20;;;23.40;99.90;;;;;;5026143;28;20821;-90
2021/05/25 08:33:02;;;;;;;4.93;4.50;;;23.60;99.90;;;;;;5026653;28;20562;-88
2021/05/25 08:35:34;;;;;;;8.40;5.67;;;23.80;99.90;;;;;;5027703;28;20450;-87
2021/05/25 08:38:01;;;;;;;5.40;4.90;;;23.90;99.90;;;;;;5027279;28;20485;-91
2021/05/25 08:40:28;;;;;;;5.73;5.23;;;24.00;99.90;;;;;;5028377;28;20408;-87
2021/05/25 08:42:54;;;;;;;6.40;4.53;;;23.90;99.90;;;;;;5026676;28;20465;-88
2021/05/25 08:45:21;;;;;;;4.37;4.07;;;23.90;99.90;;;;;;5034490;28;20443;-91
2021/05/25 08:47:50;;;;;;;5.17;4.77;;;23.80;99.90;;;;;;5038480;28;20425;-91
2021/05/25 08:50:19;;;;;;;5.00;4.60;;;23.70;99.90;;;;;;5028108;28;20452;-91
2021/05/25 08:52:45;;;;;;;5.57;5.17;;;23.90;99.90;;;;;;5032548;27;20939;-88
2021/05/25 08:55:11;;;;;;;4.80;4.40;;;23.90;99.90;;;;;;5028675;28;20430;-91
2021/05/25 08:57:38;;;;;;;7.97;4.77;;;24.00;99.90;;;;;;5027069;28;20297;-91
2021/05/25 09:00:07;;;;;;;4.93;4.53;;;24.30;99.90;;;;;;5028091;28;20478;-91
2021/05/25 09:02:32;;;;;;;6.63;4.57;;;24.30;99.90;;;;;;5023893;28;21030;-87
2021/05/25 09:05:23;;;;;;;5.07;4.70;;;24.40;99.90;;;;;;5023135;28;20420;-86
2021/05/25 09:07:54;;;;;;;5.13;4.07;;;24.00;99.90;;;;;;5024192;28;20449;-91
2021/05/25 09:10:37;;;;;;;4.60;4.27;;;24.40;99.90;;;;;;5023848;28;20436;-92
2021/05/25 09:13:10;;;;;;;4.80;4.40;;;24.40;99.90;;;;;;5030324;28;20964;-92
2021/05/25 09:15:40;;;;;;;5.47;4.90;;;24.10;99.90;;;;;;5027591;28;20740;-88
2021/05/25 09:18:07;;;;;;;4.87;4.13;;;24.30;99.90;;;;;;5027669;28;20565;-91
2021/05/25 09:21:02;;;;;;;4.70;4.30;;;24.20;99.90;;;;;;5025995;28;20465;-90
2021/05/25 09:23:34;;;;;;;5.10;4.43;;;24.50;99.90;;;;;;5028347;28;20460;-86
2021/05/25 09:26:19;;;;;;;5.60;4.60;;;24.10;99.90;;;;;;5031704;28;20436;-90
2021/05/25 09:29:08;;;;;;;5.43;4.40;;;24.10;99.90;;;;;;5030765;28;20950;-87
2021/05/25 09:31:50;;;;;;;5.13;4.73;;;24.40;99.90;;;;;;5029212;28;20458;-91
2021/05/25 09:34:17;;;;;;;6.07;5.57;;;24.70;99.90;;;;;;5021865;28;20497;-87
2021/05/25 09:37:05;;;;;;;5.53;5.13;;;24.40;99.90;;;;;;5036401;28;20414;-88
2021/05/25 09:39:40;;;;;;;7.37;5.90;;;24.70;99.90;;;;;;5027314;28;20479;-92
2021/05/25 09:42:07;;;;;;;5.80;4.90;;;24.80;99.90;;;;;;5027456;28;20444;-93
2021/05/25 09:44:34;;;;;;;5.90;5.40;;;24.60;99.90;;;;;;5032992;28;20437;-92
2021/05/25 09:47:02;;;;;;;5.50;5.10;;;24.50;99.90;;;;;;5024777;28;20443;-92
2021/05/25 09:49:32;;;;;;;8.20;5.43;;;24.70;99.90;;;;;;5023819;28;20772;-88
2021/05/25 09:52:08;;;;;;;6.77;6.20;;;24.70;99.90;;;;;;5016730;28;22881;-88
2021/05/25 09:54:34;;;;;;;6.83;5.80;;;24.70;99.90;;;;;;5025401;28;20501;-88
2021/05/25 09:57:05;;;;;;;5.93;5.53;;;24.50;99.90;;;;;;5019914;28;20434;-88
2021/05/25 09:59:36;;;;;;;6.40;5.80;;;24.40;99.90;;;;;;5025129;28;20910;-87
2021/05/25 10:02:21;;;;;;;7.57;5.63;;;24.60;99.90;;;;;;5029038;28;20440;-87
2021/05/25 10:05:02;;;;;;;7.20;6.50;;;24.60;99.90;;;;;;5022493;28;20465;-88
2021/05/25 10:07:29;;;;;;;6.17;5.53;;;24.40;99.90;;;;;;5126035;27;20482;-92
2021/05/25 10:09:56;;;;;;;8.57;5.97;;;24.40;99.90;;;;;;5115605;27;20849;-88
2021/05/25 10:12:29;;;;;;;6.37;5.87;;;24.50;99.90;;;;;;5114743;27;20416;-88
2021/05/25 10:14:55;;;;;;;7.60;5.63;;;24.40;99.90;;;;;;5114927;27;20456;-92
2021/05/25 10:20:15;;;;;;;7.47;6.63;;;24.20;99.90;;;;;;5075962;28;20430;-88
2021/05/25 10:22:41;;;;;;;8.07;7.30;;;24.30;99.90;;;;;;5096262;27;20921;-93
2021/05/25 10:25:11;;;;;;;7.53;6.63;;;24.30;99.90;;;;;;5096599;28;20271;-92
2021/05/25 10:27:37;;;;;;;9.27;8.00;;;24.30;99.90;;;;;;5100034;27;20427;-88
2021/05/25 10:30:04;;;;;;;8.43;7.40;;;24.20;99.90;;;;;;5137092;27;20415;-91
2021/05/25 10:32:29;;;;;;;8.47;7.67;;;24.30;99.90;;;;;;5129304;27;20159;-88
2021/05/25 10:34:55;;;;;;;8.30;7.50;;;24.20;99.90;;;;;;5148765;27;20496;-92
2021/05/25 10:37:22;;;;;;;9.70;7.40;;;24.10;99.90;;;;;;5105863;28;20282;-92
2021/05/25 10:39:56;;;;;;;8.30;7.50;;;24.00;99.90;;;;;;5113817;28;20445;-89
2021/05/25 10:42:25;;;;;;;9.03;8.17;;;23.90;99.90;;;;;;5108696;28;20859;-88
2021/05/25 10:45:09;;;;;;;10.03;8.67;;;23.90;99.90;;;;;;5114202;27;20459;-92
2021/05/25 10:47:38;;;;;;;7.83;7.23;;;24.00;99.90;;;;;;5114612;27;20522;-92
2021/05/25 10:50:38;;;;;;;10.40;8.20;;;24.00;99.90;;;;;;5276347;22;20489;-86
2021/05/25 10:53:05;;;;;;;9.00;8.10;;;24.00;99.90;;;;;;5056022;28;20435;-86
2021/05/25 10:55:38;;;;;;;9.23;8.33;;;24.20;99.90;;;;;;5063652;28;20462;-90
2021/05/25 10:58:31;;;;;;;8.40;7.60;;;24.10;99.90;;;;;;5053206;28;20539;-88
2021/05/25 11:00:59;;;;;;;9.50;8.43;;;24.20;99.90;;;;;;5047739;28;20465;-86
2021/05/25 11:03:28;;;;;;;8.53;7.43;;;24.20;99.90;;;;;;5051802;28;21044;-86
2021/05/25 11:05:59;;;;;;;8.60;7.50;;;24.30;99.90;;;;;;5053827;28;20595;-85
2021/05/25 11:08:27;;;;;;;8.80;8.00;;;24.30;99.90;;;;;;5068479;28;21009;-85
2021/05/25 11:11:02;;;;;;;9.27;8.43;;;24.30;99.90;;;;;;5065270;28;20450;-86
2021/05/25 11:13:30;;;;;;;8.23;7.57;;;23.70;99.90;;;;;;5050772;28;20428;-84
2021/05/25 11:16:31;;;;;;;8.90;8.20;;;23.50;99.90;;;;;;5050825;28;20458;-90
2021/05/25 11:19:19;;;;;;;8.37;7.53;;;24.00;99.90;;;;;;5062060;28;20530;-86
2021/05/25 11:24:42;;;;;;;7.57;6.90;;;24.10;99.90;;;;;;5063846;28;20406;-87
2021/05/25 11:27:28;;;;;;;8.70;7.83;;;24.10;99.90;;;;;;5046319;28;20545;-86
2021/05/25 11:30:01;;;;;;;8.70;7.93;;;24.30;99.90;;;;;;5049645;28;20939;-86
2021/05/25 11:32:42;;;;;;;9.30;8.40;;;24.40;99.90;;;;;;5068657;28;20415;-90
2021/05/25 11:35:13;;;;;;;9.93;9.13;;;24.00;99.90;;;;;;5045278;28;20427;-89
2021/05/25 11:37:45;;;;;;;8.60;7.93;;;24.10;99.90;;;;;;5032077;28;20870;-84
2021/05/25 11:40:16;;;;;;;8.90;8.00;;;24.20;99.90;;;;;;5045026;28;20462;-88
2021/05/25 11:42:47;;;;;;;8.90;8.00;;;24.40;99.90;;;;;;5063820;28;20465;-86
2021/05/25 11:45:14;;;;;;;9.13;8.33;;;24.30;99.90;;;;;;5045072;28;20436;-88
2021/05/25 11:47:40;;;;;;;9.00;8.30;;;24.30;99.90;;;;;;5047607;28;20453;-87
2021/05/25 11:50:08;;;;;;;9.83;8.83;;;24.40;99.90;;;;;;5049013;28;20960;-87
2021/05/25 11:52:39;;;;;;;8.27;7.47;;;24.30;99.90;;;;;;5039348;28;20502;-88
2021/05/25 11:55:06;;;;;;;7.60;6.90;;;24.10;99.90;;;;;;4987940;28;20434;-88
2021/05/25 11:57:46;;;;;;;9.33;8.43;;;24.20;99.90;;;;;;4986027;28;20427;-85
2021/05/25 12:00:31;;;;;;;8.13;7.43;;;24.10;99.90;;;;;;5029430;28;20508;-88
2021/05/25 12:02:58;;;;;;;8.63;7.90;;;24.20;99.90;;;;;;5004585;28;20435;-90
2021/05/25 12:05:27;;;;;;;8.70;7.90;;;24.20;99.90;;;;;;4991202;28;20455;-87
2021/05/25 12:07:56;;;;;;;9.10;8.30;;;24.10;99.90;;;;;;5015937;28;20424;-93
2021/05/25 12:10:25;;;;;;;8.73;7.90;;;24.10;99.90;;;;;;5039829;28;20469;-89
2021/05/25 12:12:52;;;;;;;10.30;9.00;;;23.90;99.90;;;;;;5010953;28;20434;-86
2021/05/25 12:15:22;;;;;;;9.37;8.47;;;23.80;99.90;;;;;;5036711;28;20461;-85
2021/05/25 12:17:56;;;;;;;8.87;8.07;;;23.90;99.90;;;;;;4971126;28;20462;-90
2021/05/25 12:20:45;;;;;;;8.37;7.50;;;23.90;99.90;;;;;;4999573;28;20548;-86
2021/05/25 12:23:16;;;;;;;8.60;7.60;;;24.00;99.90;;;;;;5001369;28;20426;-88
2021/05/25 12:25:50;;;;;;;8.20;6.97;;;23.80;99.90;;;;;;5023806;28;20519;-93
2021/05/25 12:28:20;;;;;;;7.53;6.93;;;23.70;99.90;;;;;;4999657;28;20426;-88
2021/05/25 12:30:52;;;;;;;8.63;7.40;;;23.60;99.90;;;;;;4975145;28;20454;-92
2021/05/25 12:33:22;;;;;;;8.80;8.10;;;23.70;99.90;;;;;;4980886;28;20793;-87
2021/05/25 12:35:48;;;;;;;8.27;7.57;;;23.40;99.90;;;;;;5020354;28;20662;-85
2021/05/25 12:38:17;;;;;;;7.60;6.80;;;23.70;99.90;;;;;;4986865;28;20949;-88
2021/05/25 12:41:00;;;;;;;8.50;7.40;;;24.00;99.90;;;;;;5005244;28;20453;-87
2021/05/25 12:43:28;;;;;;;10.20;6.70;;;24.00;99.90;;;;;;4992434;28;20426;-92
2021/05/25 12:46:08;;;;;;;8.20;7.40;;;24.20;99.90;;;;;;4994882;28;20463;-86
2021/05/25 12:48:42;;;;;;;14.73;7.40;;;24.20;99.90;;;;;;5029339;28;20439;-86
2021/05/25 12:51:09;;;;;;;8.13;7.27;;;24.00;99.90;;;;;;4996719;28;21047;-84
2021/05/25 12:53:55;;;;;;;10.30;7.10;;;24.10;99.90;;;;;;5015394;28;20401;-84
2021/05/25 12:56:22;;;;;;;11.10;7.37;;;24.00;99.90;;;;;;5058863;28;20469;-85
2021/05/25 12:58:52;;;;;;;10.43;7.60;;;24.30;99.90;;;;;;4985912;28;20883;-86
2021/05/25 13:01:26;;;;;;;8.83;6.97;;;24.20;99.90;;;;;;5015511;28;20477;-88
2021/05/25 13:04:14;;;;;;;8.20;7.30;;;24.10;99.90;;;;;;5067209;28;21010;-87
2021/05/25 13:07:03;;;;;;;7.40;6.03;;;24.00;99.90;;;;;;4986119;28;20453;-87
2021/05/25 13:09:40;;;;;;;7.90;6.00;;;24.00;99.90;;;;;;4989280;28;20426;-86
2021/05/25 13:12:11;;;;;;;7.57;5.80;;;23.70;99.90;;;;;;4976256;28;20463;-86
2021/05/25 13:14:39;;;;;;;7.00;5.47;;;23.60;99.90;;;;;;5031429;28;20432;-87
2021/05/25 13:17:11;;;;;;;6.70;5.13;;;23.60;99.90;;;;;;5012834;28;20444;-86
2021/05/25 13:19:45;;;;;;;6.40;5.80;;;23.60;99.90;;;;;;5033648;28;20539;-84
2021/05/25 13:22:30;;;;;;;9.00;5.93;;;23.60;99.90;;;;;;4985303;28;20452;-85
2021/05/25 13:24:59;;;;;;;6.13;5.53;;;23.50;99.90;;;;;;5012291;28;20426;-83
2021/05/25 13:27:27;;;;;;;10.10;5.37;;;23.60;99.90;;;;;;4989039;28;20417;-87
2021/05/25 13:30:00;;;;;;;7.17;5.30;;;23.50;99.90;;;;;;5050769;28;20414;-86
2021/05/25 13:32:27;;;;;;;5.27;4.77;;;23.70;99.90;;;;;;4990382;28;20510;-83
2021/05/25 13:34:54;;;;;;;6.17;5.13;;;23.70;99.90;;;;;;4968395;28;20430;-86
2021/05/25 13:37:20;;;;;;;5.23;4.50;;;23.80;99.90;;;;;;5019089;28;20421;-87
2021/05/25 13:39:50;;;;;;;8.73;4.40;;;24.10;99.90;;;;;;5032678;28;20462;-88
2021/05/25 13:42:16;;;;;;;8.73;4.30;;;24.20;99.90;;;;;;5001636;28;20204;-84
2021/05/25 13:44:42;;;;;;;5.80;4.50;;;23.90;99.90;;;;;;4986816;28;20442;-85